Time;durP1;ratioP1;P1;durP2;ratioP2;P2;SDS_P1;SDS_P2;PMS_P1;PMS_P2;Temp;Humidity;BMP_temperature;BMP_pressure;BME280_temperature;BME280_humidity;BME280_pressure;Samples;Min_cycle;Max_cycle;Signal;HPM_P1;HPM_P2
2022/03/18 00:00:24;;;;;;;38.17;20.32;;;;;;;-1.71;47.02;102680.69;1662876;86;25698;-71
2022/03/18 00:02:54;;;;;;;45.15;22.32;;;;;;;-1.74;46.63;102686.33;1663024;86;25433;-70
2022/03/18 00:05:22;;;;;;;41.63;21.10;;;;;;;-1.77;46.96;102682.20;1662670;86;28184;-70
2022/03/18 00:07:49;;;;;;;46.60;21.62;;;;;;;-1.82;47.66;102686.33;1663047;86;25578;-70
2022/03/18 00:10:18;;;;;;;40.45;21.62;;;;;;;-1.88;47.93;102696.62;1662963;86;28195;-71
2022/03/18 00:12:46;;;;;;;44.63;22.67;;;;;;;-1.92;47.98;102695.30;1662811;86;25421;-71
2022/03/18 00:15:14;;;;;;;43.08;22.58;;;;;;;-1.95;48.12;102697.47;1662985;86;25670;-71
2022/03/18 00:17:42;;;;;;;48.35;22.02;;;;;;;-1.97;48.39;102702.12;1662835;86;25924;-71
2022/03/18 00:20:12;;;;;;;37.45;20.72;;;;;;;-2.00;48.20;102704.59;1662814;86;25658;-71
2022/03/18 00:22:41;;;;;;;42.20;21.45;;;;;;;-2.01;47.92;102710.91;1662941;86;27471;-71
2022/03/18 00:25:09;;;;;;;42.53;21.48;;;;;;;-2.03;48.19;102719.50;1662980;86;25709;-71
2022/03/18 00:27:38;;;;;;;40.65;20.43;;;;;;;-2.09;48.31;102717.53;1662805;86;25404;-71
2022/03/18 00:30:07;;;;;;;40.63;19.87;;;;;;;-2.16;48.02;102723.98;1663009;86;25931;-72
2022/03/18 00:32:33;;;;;;;39.33;20.90;;;;;;;-2.23;48.25;102712.86;1663067;86;25682;-72
2022/03/18 00:35:00;;;;;;;37.03;18.32;;;;;;;-2.29;48.35;102702.42;1662752;86;27358;-72
2022/03/18 00:37:26;;;;;;;38.80;20.17;;;;;;;-2.30;48.58;102707.38;1662901;86;25723;-72
2022/03/18 00:39:52;;;;;;;43.45;19.77;;;;;;;-2.31;49.19;102715.84;1662931;86;25413;-72
2022/03/18 00:42:19;;;;;;;40.03;21.73;;;;;;;-2.31;49.32;102709.22;1662752;86;25934;-72
2022/03/18 00:44:45;;;;;;;35.95;18.27;;;;;;;-2.29;49.26;102712.52;1661925;86;26239;-72
2022/03/18 00:52:41;;;;;;;40.17;20.77;;;;;;;-2.26;49.80;102716.69;1663201;86;25470;-71
2022/03/18 00:55:09;;;;;;;41.30;20.50;;;;;;;-2.27;49.38;102708.38;1663149;86;26588;-71
2022/03/18 00:57:36;;;;;;;39.95;21.30;;;;;;;-2.27;49.63;102708.38;1657571;86;25605;-71
2022/03/18 01:00:06;;;;;;;40.38;21.00;;;;;;;-2.32;49.98;102707.54;1644349;87;27475;-71
2022/03/18 01:02:32;;;;;;;39.13;20.08;;;;;;;-2.36;49.88;102708.05;1667434;85;25605;-71
2022/03/18 01:04:59;;;;;;;39.45;21.12;;;;;;;-2.40;49.77;102714.19;1684956;85;25606;-71
2022/03/18 01:07:25;;;;;;;40.88;20.68;;;;;;;-2.42;50.30;102708.70;1684821;85;25919;-71
2022/03/18 01:09:51;;;;;;;43.00;21.95;;;;;;;-2.46;49.89;102715.64;1684919;85;25456;-72
2022/03/18 01:12:18;;;;;;;35.48;20.02;;;;;;;-2.50;50.12;102711.67;1684812;85;27944;-72
2022/03/18 01:14:45;;;;;;;34.33;17.92;;;;;;;-2.55;50.37;102713.98;1684763;85;25646;-72
2022/03/18 01:17:11;;;;;;;33.95;18.48;;;;;;;-2.57;50.50;102715.12;1684857;85;25447;-72
2022/03/18 01:19:38;;;;;;;44.88;21.73;;;;;;;-2.59;50.73;102715.27;1684807;85;25940;-72
2022/03/18 01:22:05;;;;;;;41.90;21.70;;;;;;;-2.60;50.69;102716.28;1684901;85;25495;-72
2022/03/18 01:24:31;;;;;;;40.50;20.95;;;;;;;-2.64;51.00;102713.61;1684848;85;27559;-72
2022/03/18 01:26:58;;;;;;;43.28;21.10;;;;;;;-2.63;50.73;102716.61;1685270;85;25464;-72
2022/03/18 01:29:24;;;;;;;38.40;19.92;;;;;;;-2.63;50.85;102716.61;1685291;85;25467;-72
2022/03/18 01:31:50;;;;;;;40.05;20.65;;;;;;;-2.63;51.34;102714.77;1684968;85;25855;-72
2022/03/18 01:34:17;;;;;;;39.15;19.48;;;;;;;-2.62;51.05;102716.95;1684866;85;25456;-72
2022/03/18 01:36:43;;;;;;;41.58;21.65;;;;;;;-2.64;51.18;102715.78;1684857;85;27335;-72
2022/03/18 01:39:09;;;;;;;34.92;20.75;;;;;;;-2.64;51.28;102725.06;1684764;85;25381;-72
2022/03/18 01:41:36;;;;;;;39.48;22.20;;;;;;;-2.63;51.35;102717.42;1684837;85;25559;-72
2022/03/18 01:44:02;;;;;;;38.48;21.55;;;;;;;-2.60;51.37;102720.27;1684825;85;26004;-72
2022/03/18 01:46:29;;;;;;;40.08;20.77;;;;;;;-2.59;51.06;102713.12;1684868;85;25554;-72
2022/03/18 01:48:55;;;;;;;40.48;22.10;;;;;;;-2.58;51.48;102720.10;1684828;85;27389;-72
2022/03/18 01:51:23;;;;;;;44.15;22.52;;;;;;;-2.55;51.19;102721.11;1684733;85;25705;-72
2022/03/18 01:54:44;;;;;;;43.80;21.65;;;;;;;-2.55;51.14;102723.76;1667188;85;25544;-72
2022/03/18 01:56:18;;;;;;;44.80;21.95;;;;;;;-2.56;51.10;102724.23;1682016;85;25566;-72
2022/03/18 01:58:44;;;;;;;45.73;20.70;;;;;;;-2.57;51.06;102725.72;1704246;83;25661;-72
2022/03/18 02:01:11;;;;;;;40.67;23.07;;;;;;;-2.58;51.10;102732.03;1715014;83;27312;-72
2022/03/18 02:03:37;;;;;;;44.40;23.67;;;;;;;-2.59;51.33;102735.15;1714914;83;25550;-72
2022/03/18 02:06:25;;;;;;;42.62;23.15;;;;;;;-2.61;51.37;102734.99;1660515;85;25593;-72
2022/03/18 02:08:52;;;;;;;39.10;22.02;;;;;;;-2.68;51.33;102736.95;1634898;87;25959;-72
2022/03/18 02:11:18;;;;;;;47.35;24.82;;;;;;;-2.76;51.34;102740.07;1671943;85;25595;-71
2022/03/18 02:13:50;;;;;;;46.55;23.27;;;;;;;-2.80;51.49;102744.86;1671969;85;27425;-71
2022/03/18 02:16:16;;;;;;;47.40;23.45;;;;;;;-2.89;51.55;102740.03;1671821;85;25465;-71
2022/03/18 02:18:42;;;;;;;45.85;24.70;;;;;;;-2.98;51.48;102742.29;1671873;85;25537;-72
2022/03/18 02:21:12;;;;;;;51.23;24.50;;;;;;;-3.04;51.73;102747.73;1671831;85;26102;-71
2022/03/18 02:23:39;;;;;;;46.55;23.07;;;;;;;-3.09;52.03;102742.08;1671876;85;25722;-71
2022/03/18 02:26:06;;;;;;;50.60;23.73;;;;;;;-3.13;52.08;102742.55;1671856;85;27342;-71
2022/03/18 02:28:32;;;;;;;41.68;23.22;;;;;;;-3.17;52.77;102747.83;1671746;85;25695;-71
2022/03/18 02:30:59;;;;;;;50.17;24.57;;;;;;;-3.20;52.50;102747.17;1671892;85;25617;-72
2022/03/18 02:33:25;;;;;;;44.88;23.45;;;;;;;-3.21;52.69;102740.70;1687638;84;26680;-71
2022/03/18 02:35:56;;;;;;;45.92;24.47;;;;;;;-3.25;53.30;102744.16;1697519;84;25589;-71
2022/03/18 02:38:23;;;;;;;49.13;25.37;;;;;;;-3.26;53.30;102741.16;1697502;84;28820;-71
2022/03/18 02:40:49;;;;;;;43.48;24.95;;;;;;;-3.28;53.51;102745.79;1697443;84;25590;-71
2022/03/18 02:43:19;;;;;;;51.80;26.75;;;;;;;-3.28;53.40;102756.88;1697524;84;25410;-72
2022/03/18 02:45:45;;;;;;;51.25;26.07;;;;;;;-3.27;53.37;102759.84;1697607;84;25987;-71
2022/03/18 02:48:11;;;;;;;49.35;24.87;;;;;;;-3.26;53.46;102764.17;1697517;84;25581;-71
2022/03/18 02:50:38;;;;;;;49.93;25.57;;;;;;;-3.25;53.39;102767.98;1697508;84;27332;-71
2022/03/18 02:53:04;;;;;;;50.60;27.35;;;;;;;-3.26;53.42;102767.63;1697457;84;25645;-71
2022/03/18 02:55:30;;;;;;;52.20;27.17;;;;;;;-3.29;53.34;102767.12;1697514;84;25422;-72
2022/03/18 02:57:57;;;;;;;53.73;28.05;;;;;;;-3.34;53.18;102771.55;1697473;84;25959;-72
2022/03/18 03:00:25;;;;;;;57.48;27.45;;;;;;;-3.35;53.20;102775.67;1697534;84;25620;-72
2022/03/18 03:02:53;;;;;;;51.23;26.73;;;;;;;-3.39;53.07;102768.53;1697506;84;27334;-72
2022/03/18 03:08:04;;;;;;;43.68;23.92;;;;;;;-3.47;53.67;102762.71;1708940;83;25321;-71
2022/03/18 03:10:33;;;;;;;50.28;24.75;;;;;;;-3.50;53.98;102763.52;1715710;83;26494;-71
2022/03/18 03:13:03;;;;;;;;;;;;;;;-3.52;53.77;102766.78;1718400;83;25454;-71
2022/03/18 03:15:30;;;;;;;48.55;24.35;;;;;;;-3.57;54.11;102770.73;1715755;82;27300;-72
2022/03/18 03:17:57;;;;;;;50.63;26.00;;;;;;;-3.61;54.46;102774.69;1715870;83;25443;-72
2022/03/18 03:20:23;;;;;;;49.18;24.37;;;;;;;-3.61;54.34;102777.80;1716314;83;25231;-72
2022/03/18 03:22:50;;;;;;;51.60;24.95;;;;;;;-3.63;54.56;102776.63;1716516;83;26474;-72
2022/03/18 03:25:17;;;;;;;60.73;27.80;;;;;;;-3.62;54.74;102777.48;1716584;83;25406;-72
2022/03/18 03:27:44;;;;;;;54.67;25.43;;;;;;;-3.63;54.91;102775.81;1715876;83;27320;-72
2022/03/18 03:30:11;;;;;;;52.58;25.85;;;;;;;-3.62;54.59;102776.16;1715910;83;25508;-72
2022/03/18 03:32:38;;;;;;;50.10;25.05;;;;;;;-3.62;55.07;102780.95;1715728;83;25559;-72
2022/03/18 03:35:08;;;;;;;52.38;25.00;;;;;;;-3.63;55.14;102777.13;1715844;83;25877;-71
2022/03/18 03:37:35;;;;;;;52.23;26.82;;;;;;;-3.64;55.17;102772.84;1715963;83;25386;-72
2022/03/18 03:40:03;;;;;;;56.98;25.32;;;;;;;-3.65;55.05;102783.08;1715729;83;27389;-71
2022/03/18 03:42:30;;;;;;;51.90;24.82;;;;;;;-3.64;55.38;102786.08;1715670;83;25402;-71
2022/03/18 03:44:56;;;;;;;45.73;22.58;;;;;;;-3.63;55.61;102791.19;1715719;83;25449;-71
2022/03/18 03:47:22;;;;;;;52.05;25.10;;;;;;;-3.64;55.70;102790.86;1715720;83;26828;-71
2022/03/18 03:49:49;;;;;;;52.85;27.02;;;;;;;-3.58;55.62;102804.78;1715737;83;25441;-71
2022/03/18 03:52:16;;;;;;;54.80;26.40;;;;;;;-3.55;55.16;102811.59;1715734;83;28089;-71
2022/03/18 03:54:42;;;;;;;48.05;26.20;;;;;;;-3.57;55.31;102806.95;1715660;83;25445;-71
2022/03/18 03:57:09;;;;;;;52.70;26.57;;;;;;;-3.60;55.31;102804.11;1715779;83;25398;-72
2022/03/18 03:59:36;;;;;;;55.23;28.35;;;;;;;-3.62;55.24;102814.02;1715706;83;26031;-72
2022/03/18 04:02:03;;;;;;;53.90;26.57;;;;;;;-3.63;55.30;102815.50;1697207;83;25499;-72
2022/03/18 04:04:31;;;;;;;52.33;26.12;;;;;;;-3.66;55.27;102811.83;1715754;83;27420;-72
2022/03/18 04:06:58;;;;;;;52.53;25.20;;;;;;;-3.70;55.05;102818.41;1716063;82;25784;-72
2022/03/18 04:09:24;;;;;;;54.95;27.65;;;;;;;-3.75;55.63;102813.58;1732923;82;25618;-72
2022/03/18 04:11:51;;;;;;;51.65;27.55;;;;;;;-3.74;55.79;102823.69;1732926;82;25897;-72
2022/03/18 04:14:17;;;;;;;48.52;23.90;;;;;;;-3.76;55.85;102820.69;1732979;82;25442;-72
2022/03/18 04:16:44;;;;;;;49.15;25.35;;;;;;;-3.77;56.08;102820.83;1732941;82;27333;-72
2022/03/18 04:19:12;;;;;;;43.45;22.75;;;;;;;-3.79;55.82;102823.63;1732862;82;25397;-71
2022/03/18 04:21:38;;;;;;;40.50;22.27;;;;;;;-3.80;55.74;102828.59;1732976;82;25536;-71
2022/03/18 04:24:05;;;;;;;46.05;22.40;;;;;;;-3.78;56.45;102834.56;1732893;82;25939;-72
2022/03/18 04:26:32;;;;;;;42.48;22.30;;;;;;;-3.76;56.32;102835.73;1732941;82;25681;-72
2022/03/18 04:28:59;;;;;;;45.30;23.10;;;;;;;-3.75;56.30;102843.98;1732903;82;27834;-72
2022/03/18 04:31:25;;;;;;;45.65;22.98;;;;;;;-3.75;56.10;102842.67;1732893;82;25522;-72
2022/03/18 04:33:52;;;;;;;41.88;22.50;;;;;;;-3.72;56.17;102848.16;1732944;82;25476;-72
2022/03/18 04:36:18;;;;;;;48.10;23.50;;;;;;;-3.71;56.14;102854.63;1732895;82;25989;-71
2022/03/18 04:38:44;;;;;;;39.58;21.50;;;;;;;-3.71;56.17;102855.95;1732965;82;25473;-72
2022/03/18 04:41:11;;;;;;;41.68;22.73;;;;;;;-3.74;56.17;102853.60;1732927;82;27292;-71
2022/03/18 04:43:37;;;;;;;42.85;23.07;;;;;;;-3.77;55.90;102860.02;1732812;82;25654;-72
2022/03/18 04:46:03;;;;;;;40.88;22.07;;;;;;;-3.77;55.88;102864.48;1732948;82;25449;-72
2022/03/18 04:48:30;;;;;;;39.20;22.42;;;;;;;-3.78;56.03;102867.63;1732900;82;26674;-72
2022/03/18 04:50:57;;;;;;;46.90;24.05;;;;;;;-3.79;56.53;102858.02;1732911;82;25392;-72
2022/03/18 04:53:23;;;;;;;44.18;23.00;;;;;;;-3.78;56.65;102870.27;1732921;82;28056;-72
2022/03/18 04:55:50;;;;;;;48.25;23.83;;;;;;;-3.76;56.90;102868.80;1732829;82;25695;-72
2022/03/18 04:58:16;;;;;;;45.52;23.05;;;;;;;-3.77;56.77;102863.98;1732931;82;25530;-71
2022/03/18 05:00:43;;;;;;;45.30;23.22;;;;;;;-3.77;56.65;102857.36;1732882;82;25912;-71
2022/03/18 05:03:12;;;;;;;47.27;23.52;;;;;;;-3.77;56.93;102867.95;1732925;82;25559;-72
2022/03/18 05:05:38;;;;;;;;;;;;;;;-3.75;56.87;102874.41;1735454;82;27905;-71
2022/03/18 05:08:05;;;;;;;44.10;23.25;;;;;;;-3.73;56.84;102879.05;1727387;82;25694;-71
2022/03/18 05:10:33;;;;;;;78.97;37.33;;;;;;;-3.73;57.05;102888.81;1715811;83;25461;-71
2022/03/18 05:12:59;;;;;;;121.57;55.75;;;;;;;-3.73;57.12;102884.84;1715785;83;26575;-71
2022/03/18 05:15:26;;;;;;;66.72;32.93;;;;;;;-3.72;57.02;102884.70;1715832;83;25493;-71
2022/03/18 05:17:57;;;;;;;51.37;23.83;;;;;;;-3.69;57.27;102892.34;1715772;83;27316;-72
2022/03/18 05:20:24;;;;;;;48.40;23.25;;;;;;;-3.66;57.40;102899.12;1715765;83;25397;-72
2022/03/18 05:22:53;;;;;;;44.15;23.18;;;;;;;-3.64;57.35;102898.02;1715813;83;25476;-72
2022/03/18 05:25:26;;;;;;;43.55;23.12;;;;;;;-3.62;57.54;102900.01;1715975;83;26006;-72
2022/03/18 05:27:53;;;;;;;43.90;23.18;;;;;;;-3.58;57.57;102899.21;1716157;83;25612;-71
2022/03/18 05:30:20;;;;;;;50.03;23.00;;;;;;;-3.50;57.61;102900.63;1715820;83;27411;-72
2022/03/18 05:32:46;;;;;;;49.23;24.32;;;;;;;-3.44;57.77;102906.64;1715840;83;25637;-71
2022/03/18 05:35:13;;;;;;;61.58;29.32;;;;;;;-3.35;57.91;102910.66;1715914;83;25647;-72
2022/03/18 05:37:39;;;;;;;72.15;33.80;;;;;;;-3.26;57.80;102914.55;1715822;83;26102;-72
2022/03/18 05:40:08;;;;;;;64.45;29.27;;;;;;;-3.15;57.76;102914.83;1715905;83;25172;-71
2022/03/18 05:42:35;;;;;;;53.78;26.55;;;;;;;-3.03;57.91;102916.72;1715999;83;27994;-72
2022/03/18 05:45:02;;;;;;;48.98;25.10;;;;;;;-2.89;58.01;102923.30;1715794;83;25629;-71
2022/03/18 05:47:30;;;;;;;51.00;27.67;;;;;;;-2.74;57.84;102928.37;1715977;83;25570;-72
2022/03/18 05:50:03;;;;;;;47.20;23.32;;;;;;;-2.56;57.93;102923.00;1715879;83;25933;-71
2022/03/18 05:52:30;;;;;;;46.18;23.95;;;;;;;-2.40;57.73;102927.58;1715248;83;25631;-72
2022/03/18 05:54:58;;;;;;;49.55;23.57;;;;;;;-2.18;57.71;102934.63;1715984;83;28033;-71
2022/03/18 05:57:27;;;;;;;51.02;24.20;;;;;;;-2.01;57.46;102926.23;1716260;83;25414;-72
2022/03/18 05:59:56;;;;;;;52.33;25.67;;;;;;;-1.81;57.28;102937.42;1716138;83;25645;-72
2022/03/18 06:02:23;;;;;;;47.30;23.83;;;;;;;-1.58;57.24;102932.34;1715837;83;26475;-72
2022/03/18 06:04:50;;;;;;;48.80;22.27;;;;;;;-1.38;56.73;102937.69;1715913;83;25160;-71
2022/03/18 06:07:18;;;;;;;41.85;21.77;;;;;;;-1.15;56.56;102941.02;1715857;83;27384;-72
2022/03/18 06:12:30;;;;;;;41.77;21.30;;;;;;;-0.71;55.82;102946.48;1732941;82;25549;-72
2022/03/18 06:14:56;;;;;;;41.65;20.60;;;;;;;-0.44;55.28;102949.25;1732924;82;26028;-71
2022/03/18 06:17:22;;;;;;;41.80;20.17;;;;;;;-0.21;54.63;102955.48;1733013;82;25563;-71
2022/03/18 06:19:49;;;;;;;39.33;20.20;;;;;;;0.02;54.44;102957.41;1732975;82;27382;-71
2022/03/18 06:22:16;;;;;;;37.45;19.48;;;;;;;0.30;54.20;102951.09;1732892;82;25714;-71
2022/03/18 06:24:44;;;;;;;36.50;20.97;;;;;;;0.58;53.60;102953.77;1733055;82;25558;-73
2022/03/18 06:27:11;;;;;;;39.00;19.10;;;;;;;0.88;53.27;102956.87;1733707;82;25928;-72
2022/03/18 06:29:39;;;;;;;39.40;19.02;;;;;;;1.15;52.76;102948.50;1733421;82;25207;-71
2022/03/18 06:32:08;;;;;;;32.30;16.67;;;;;;;1.42;52.71;102956.41;1733110;82;27375;-71
2022/03/18 06:34:34;;;;;;;35.70;19.20;;;;;;;1.71;51.29;102959.59;1733050;82;25860;-71
2022/03/18 06:37:01;;;;;;;41.55;18.77;;;;;;;1.97;51.21;102964.97;1732918;82;25411;-72
2022/03/18 06:39:28;;;;;;;42.83;19.57;;;;;;;2.23;50.84;102961.30;1733366;82;26570;-73
2022/03/18 06:41:57;;;;;;;36.28;18.92;;;;;;;2.58;50.63;102964.13;1733287;82;25419;-75
2022/03/18 06:44:26;;;;;;;40.35;21.33;;;;;;;2.84;49.82;102966.75;1733453;82;27368;-71
2022/03/18 06:46:54;;;;;;;38.88;21.77;;;;;;;3.15;49.63;102964.23;1733335;82;25613;-71
2022/03/18 06:49:20;;;;;;;42.15;18.17;;;;;;;3.51;49.26;102972.13;1733035;82;25408;-71
2022/03/18 06:51:47;;;;;;;32.78;17.75;;;;;;;3.77;48.00;102968.48;1732915;82;26038;-72
2022/03/18 06:54:13;;;;;;;35.73;17.20;;;;;;;4.08;47.18;102968.82;1733101;82;25650;-73
2022/03/18 06:56:40;;;;;;;36.38;17.40;;;;;;;4.37;45.87;102974.91;1733899;82;27059;-73
2022/03/18 06:59:07;;;;;;;28.27;16.70;;;;;;;4.56;46.10;102975.98;1733286;82;25751;-74
2022/03/18 07:01:34;;;;;;;35.35;17.60;;;;;;;4.79;45.48;102981.00;1733073;82;25622;-71
2022/03/18 07:04:01;;;;;;;34.73;17.10;;;;;;;5.14;45.08;102978.14;1732977;82;25925;-72
2022/03/18 07:06:27;;;;;;;28.75;16.97;;;;;;;5.43;44.01;102971.52;1732556;82;25685;-72
2022/03/18 07:08:54;;;;;;;28.92;16.30;;;;;;;5.63;43.74;102980.56;1727145;82;27334;-72
2022/03/18 07:11:22;;;;;;;32.80;16.32;;;;;;;5.89;43.48;102985.03;1715729;83;25670;-72
2022/03/18 07:13:51;;;;;;;30.45;15.05;;;;;;;6.25;43.09;102984.53;1715913;83;25556;-72
2022/03/18 07:19:03;;;;;;;29.48;15.55;;;;;;;7.18;42.41;102981.74;1700397;83;25669;-72
2022/03/18 07:21:31;;;;;;;21.95;13.85;;;;;;;7.60;41.15;102985.20;1715804;83;28042;-72
2022/03/18 07:23:58;;;;;;;28.23;15.55;;;;;;;7.71;39.23;102979.06;1715755;83;25711;-72
2022/03/18 07:26:24;;;;;;;25.92;14.50;;;;;;;7.97;38.18;102985.23;1716570;83;25457;-72
2022/03/18 07:28:51;;;;;;;24.92;14.85;;;;;;;8.20;38.94;102985.33;1697548;83;26505;-72
2022/03/18 07:31:17;;;;;;;41.55;20.32;;;;;;;8.37;38.47;102992.80;1715959;83;25399;-72
2022/03/18 07:33:52;;;;;;;21.45;14.18;;;;;;;8.50;36.95;103002.10;1715903;83;27375;-71
2022/03/18 07:36:18;;;;;;;23.50;13.90;;;;;;;8.53;36.21;102997.60;1715743;83;25658;-73
2022/03/18 07:38:45;;;;;;;25.30;13.75;;;;;;;8.64;36.84;103002.73;1712411;83;25698;-73
2022/03/18 07:41:12;;;;;;;19.67;12.30;;;;;;;9.01;36.29;102999.06;1710691;83;26100;-74
2022/03/18 07:43:39;;;;;;;21.55;12.98;;;;;;;9.21;33.76;103008.20;1713637;83;25859;-71
2022/03/18 07:46:06;;;;;;;22.93;12.25;;;;;;;9.13;34.53;103004.79;1713495;83;27342;-73
2022/03/18 07:48:34;;;;;;;22.48;11.97;;;;;;;9.36;34.57;103003.16;1713531;83;25366;-73
2022/03/18 07:51:00;;;;;;;20.80;12.53;;;;;;;9.52;33.97;103008.41;1713484;83;25754;-73
2022/03/18 07:53:27;;;;;;;22.37;14.28;;;;;;;9.97;31.65;103008.30;1713240;83;25956;-73
2022/03/18 07:55:54;;;;;;;26.50;14.18;;;;;;;10.16;31.79;103001.64;1714127;83;25341;-73
2022/03/18 07:58:21;;;;;;;24.35;13.25;;;;;;;10.65;32.20;103008.02;1714197;83;27326;-72
2022/03/18 08:00:48;;;;;;;22.95;12.13;;;;;;;11.59;31.40;103005.19;1713336;83;25745;-71
2022/03/18 08:03:14;;;;;;;22.73;13.30;;;;;;;12.30;31.27;103002.59;1713449;83;25692;-72
2022/03/18 08:05:41;;;;;;;23.02;12.65;;;;;;;12.81;30.51;103000.94;1712848;83;25936;-72
2022/03/18 08:08:08;;;;;;;61.10;55.63;;;;;;;13.52;30.84;102997.67;1712796;83;25798;-72
2022/03/18 08:10:36;;;;;;;36.10;32.73;;;;;;;14.22;29.16;103014.61;1726900;81;27929;-73
2022/03/18 08:13:03;;;;;;;19.00;11.53;;;;;;;14.34;28.63;103000.22;1724299;83;25748;-72
2022/03/18 08:15:30;;;;;;;21.40;15.98;;;;;;;14.46;27.96;103005.97;1724370;83;25669;-73
2022/03/18 08:17:58;;;;;;;20.57;15.70;;;;;;;14.72;27.75;103014.47;1725808;83;25934;-73
2022/03/18 08:20:28;;;;;;;21.62;13.05;;;;;;;14.65;26.87;103019.92;1727283;83;25319;-73
2022/03/18 08:22:56;;;;;;;24.60;17.62;;;;;;;14.42;26.34;103018.47;1727170;83;27283;-73
2022/03/18 08:25:24;;;;;;;14.90;10.95;;;;;;;14.33;25.83;103020.34;1727786;83;26401;-74
2022/03/18 08:27:54;;;;;;;29.90;26.85;;;;;;;14.18;26.36;103018.42;1727974;83;25642;-73
2022/03/18 08:30:21;;;;;;;16.05;9.65;;;;;;;13.81;25.41;103018.53;1726771;83;25937;-73
2022/03/18 08:32:47;;;;;;;13.15;8.60;;;;;;;13.47;25.60;103030.27;1726433;83;25719;-74
2022/03/18 08:35:14;;;;;;;14.58;8.85;;;;;;;13.07;25.10;103030.48;1726494;83;27869;-74
2022/03/18 08:37:56;;;;;;;14.20;9.83;;;;;;;12.57;24.40;103037.64;1726603;83;25783;-71
2022/03/18 08:40:32;;;;;;;12.95;8.83;;;;;;;12.07;25.67;103025.92;1726632;83;25633;-72
2022/03/18 08:43:01;;;;;;;13.18;8.65;;;;;;;11.75;25.39;103024.68;1726647;83;27025;-73
2022/03/18 08:45:29;;;;;;;16.85;9.98;;;;;;;11.95;26.33;103022.81;1726761;83;25549;-73
2022/03/18 08:47:56;;;;;;;13.05;8.18;;;;;;;12.23;26.46;103018.81;1726554;82;27328;-73
2022/03/18 08:50:23;;;;;;;11.28;7.50;;;;;;;12.32;25.61;103026.22;1726357;83;25827;-73
2022/03/18 08:52:55;;;;;;;83.25;77.53;;;;;;;12.27;25.82;103026.17;1726406;83;25711;-74
2022/03/18 08:55:23;;;;;;;13.15;7.95;;;;;;;12.55;25.78;103028.91;1726655;83;26301;-72
2022/03/18 08:57:50;;;;;;;21.50;19.30;;;;;;;12.83;25.42;103029.20;1726456;83;25735;-70
2022/03/18 09:00:19;;;;;;;86.40;80.20;;;;;;;12.86;25.30;103019.19;1726570;83;27895;-74
2022/03/18 09:02:49;;;;;;;16.82;8.55;;;;;;;12.96;25.08;103034.77;1726499;83;25691;-73
2022/03/18 09:05:16;;;;;;;12.43;7.80;;;;;;;13.22;24.98;103046.11;1708775;83;25930;-73
2022/03/18 09:07:43;;;;;;;13.10;8.10;;;;;;;13.12;24.84;103027.55;1663594;86;25933;-73
2022/03/18 09:10:12;;;;;;;16.55;7.97;;;;;;;13.52;25.25;103031.14;1657380;85;25740;-73
2022/03/18 09:12:55;;;;;;;10.72;7.05;;;;;;;14.03;24.74;103027.05;1687826;85;27252;-73
2022/03/18 09:15:19;;;;;;;12.60;8.35;;;;;;;13.79;23.52;103024.75;1687257;85;25717;-73
2022/03/18 09:17:45;;;;;;;11.60;7.30;;;;;;;13.74;23.91;103031.52;1687891;85;26376;-74
2022/03/18 09:20:12;;;;;;;29.85;27.13;;;;;;;13.76;24.13;103019.31;1687908;85;25931;-73
2022/03/18 09:22:40;;;;;;;82.65;77.22;;;;;;;14.08;24.09;103017.54;1687860;85;25795;-74
2022/03/18 09:25:11;;;;;;;14.50;8.73;;;;;;;14.51;23.27;103025.05;1688582;85;27325;-75
2022/03/18 09:27:40;;;;;;;15.65;7.95;;;;;;;14.66;23.78;103029.19;1703563;82;25724;-73
2022/03/18 09:30:10;;;;;;;13.25;8.38;;;;;;;14.73;22.98;103036.55;1720396;83;25780;-72
2022/03/18 09:32:36;;;;;;;;;;;;;;;14.59;23.47;103034.05;1709920;83;25935;-74
2022/03/18 09:35:04;;;;;;;12.80;7.97;;;;;;;14.36;22.18;103038.88;1697458;84;25339;-75
2022/03/18 09:37:31;;;;;;;16.50;9.23;;;;;;;14.36;23.46;103039.42;1697698;84;27559;-74
2022/03/18 09:40:00;;;;;;;16.80;8.48;;;;;;;14.68;23.46;103022.11;1697604;84;25674;-74
2022/03/18 09:42:26;;;;;;;13.32;8.93;;;;;;;15.12;23.60;103024.31;1697618;84;25948;-76
2022/03/18 09:44:52;;;;;;;12.13;7.92;;;;;;;15.36;22.77;103017.75;1697687;84;25784;-75
2022/03/18 09:47:22;;;;;;;12.88;8.73;;;;;;;15.25;22.52;103037.92;1697547;84;25728;-75
2022/03/18 09:49:49;;;;;;;12.40;8.05;;;;;;;15.34;22.52;103032.73;1697592;84;27453;-74
2022/03/18 09:52:15;;;;;;;14.83;7.97;;;;;;;15.60;22.40;103023.97;1697432;84;25334;-76
2022/03/18 09:54:42;;;;;;;12.28;8.15;;;;;;;15.91;22.16;103032.09;1697692;84;26424;-75
2022/03/18 09:57:09;;;;;;;15.35;7.58;;;;;;;16.43;22.37;103038.97;1697244;84;25992;-73
2022/03/18 09:59:36;;;;;;;11.97;7.47;;;;;;;16.83;21.33;103029.41;1697822;84;25699;-74
2022/03/18 10:02:29;;;;;;;11.30;7.30;;;;;;;17.18;20.70;103035.16;1697510;84;27022;-74
2022/03/18 10:04:59;;;;;;;14.60;8.90;;;;;;;17.34;20.05;103025.69;1697289;84;26318;-74
2022/03/18 10:07:27;;;;;;;10.58;7.40;;;;;;;17.36;19.33;103024.84;1697620;84;25642;-77
2022/03/18 10:10:15;;;;;;;11.78;7.92;;;;;;;17.24;19.06;103027.16;1706852;82;26380;-73
2022/03/18 10:12:45;;;;;;;10.30;7.67;;;;;;;17.20;19.74;103017.91;1731437;82;25633;-71
2022/03/18 10:15:25;;;;;;;13.28;8.28;;;;;;;16.87;20.87;103016.82;1731548;82;27308;-72
2022/03/18 10:17:56;;;;;;;11.05;6.95;;;;;;;16.40;21.51;103023.94;1731327;82;25808;-73
2022/03/18 10:20:33;;;;;;;14.43;8.78;;;;;;;15.90;21.88;103024.44;1723482;83;25723;-77
2022/03/18 10:23:07;;;;;;;11.18;8.10;;;;;;;15.57;21.91;103024.52;1723592;83;26495;-76
2022/03/18 10:25:50;;;;;;;13.85;9.00;;;;;;;15.48;21.17;103020.98;1721865;83;25711;-78
2022/03/18 10:28:15;;;;;;;10.88;7.90;;;;;;;15.72;22.05;103022.31;1723620;82;27328;-76
2022/03/18 10:30:42;;;;;;;14.15;8.98;;;;;;;15.72;20.95;103031.30;1723552;83;25839;-75
2022/03/18 10:33:09;;;;;;;13.18;7.67;;;;;;;15.63;21.30;103031.06;1723553;83;25664;-76
2022/03/18 10:38:35;;;;;;;11.48;8.28;;;;;;;15.27;21.93;103035.21;1648385;85;26377;-76
2022/03/18 10:41:08;;;;;;;12.13;7.67;;;;;;;15.44;20.67;103019.08;1674179;85;27353;-74
2022/03/18 10:43:56;;;;;;;12.30;8.08;;;;;;;15.57;21.08;103033.52;1643494;85;25799;-75
2022/03/18 10:46:24;;;;;;;15.10;9.75;;;;;;;15.34;21.03;103024.55;1674369;85;25796;-75
2022/03/18 10:49:07;;;;;;;12.33;8.00;;;;;;;15.50;21.15;103025.61;1674178;85;25948;-74
2022/03/18 10:51:35;;;;;;;11.35;8.40;;;;;;;15.58;22.04;103026.98;1674374;85;25827;-74
2022/03/18 10:54:01;;;;;;;11.75;8.70;;;;;;;15.85;21.32;103038.94;1674471;85;27372;-74
2022/03/18 10:56:28;;;;;;;14.33;8.40;;;;;;;16.27;22.56;103027.84;1674140;85;26367;-74
2022/03/18 10:58:55;;;;;;;12.20;8.38;;;;;;;16.80;20.35;103015.22;1674207;85;25969;-74
2022/03/18 11:01:24;;;;;;;9.88;7.85;;;;;;;16.48;20.40;103023.06;1674293;85;26558;-74
2022/03/18 11:03:52;;;;;;;12.30;8.28;;;;;;;16.51;20.66;103020.58;1674390;85;25755;-73
2022/03/18 11:06:19;;;;;;;9.70;7.92;;;;;;;16.47;20.87;103017.36;1674307;85;27521;-74
2022/03/18 11:08:48;;;;;;;10.70;7.65;;;;;;;16.37;20.20;103014.13;1681024;83;25910;-74
2022/03/18 11:11:19;;;;;;;10.93;7.85;;;;;;;16.03;20.29;103014.28;1721705;83;25735;-74
2022/03/18 11:14:04;;;;;;;12.28;7.85;;;;;;;16.18;21.26;103018.87;1720962;83;26011;-73
2022/03/18 11:16:36;;;;;;;9.45;7.42;;;;;;;16.36;20.80;103011.95;1721208;83;25691;-73
2022/03/18 11:19:10;;;;;;;10.82;7.55;;;;;;;16.50;20.74;103014.88;1730231;82;27314;-73
2022/03/18 11:21:40;;;;;;;10.05;7.37;;;;;;;16.81;20.87;103005.09;1736729;82;25680;-74
2022/03/18 11:24:14;;;;;;;12.33;8.33;;;;;;;17.01;20.85;103019.70;1737528;82;25736;-74
2022/03/18 11:26:47;;;;;;;12.05;8.05;;;;;;;17.07;21.36;103013.11;1737134;82;26045;-74
2022/03/18 11:29:19;;;;;;;12.60;8.05;;;;;;;17.28;21.27;103022.77;1737521;82;25747;-72
2022/03/18 11:32:13;;;;;;;12.33;8.30;;;;;;;17.39;20.62;103018.55;1733044;82;27343;-76
2022/03/18 11:34:52;;;;;;;11.10;7.78;;;;;;;17.55;21.00;103017.27;1732983;82;25802;-75